Time;durP1;ratioP1;P1;durP2;ratioP2;P2;SDS_P1;SDS_P2;PMS_P1;PMS_P2;Temp;Humidity;BMP_temperature;BMP_pressure;BME280_temperature;BME280_humidity;BME280_pressure;Samples;Min_cycle;Max_cycle;Signal;HPM_P1;HPM_P2
2022/01/28 00:00:49;;;;;;;16.95;2.63;;;;;;;-144.19;100.00;78384.66;6063595;23;20070;-88
2022/01/28 00:03:22;;;;;;;15.77;3.58;;;;;;;-144.19;100.00;78380.72;6086598;23;20023;-88
2022/01/28 00:05:50;;;;;;;11.48;2.38;;;;;;;-144.19;100.00;78390.56;6056357;23;20046;-87
2022/01/28 00:08:16;;;;;;;19.27;4.53;;;;;;;-144.19;100.00;78386.63;6041480;23;20022;-87
2022/01/28 00:10:43;;;;;;;13.80;3.47;;;;;;;-144.19;100.00;78408.28;6067284;23;20026;-87
2022/01/28 00:15:53;;;;;;;17.63;2.55;;;;;;;-144.19;100.00;78388.59;6065087;23;20023;-88
2022/01/28 00:39:42;;;;;;;20.30;4.00;;;;;;;-144.19;100.00;78445.72;6156082;23;20024;-87
2022/01/28 00:42:09;;;;;;;12.45;3.10;;;;;;;-144.19;100.00;78441.78;6155514;23;20022;-88
2022/01/28 00:44:35;;;;;;;17.47;2.63;;;;;;;-144.19;100.00;78437.84;6153764;23;20021;-88
2022/01/28 00:47:02;;;;;;;13.07;2.00;;;;;;;-144.19;100.00;78447.69;6153253;23;20025;-87
2022/01/28 00:49:29;;;;;;;;;;;;;;;-144.19;100.00;78445.72;6155425;23;20417;-87
2022/01/28 00:51:55;;;;;;;15.18;2.33;;;;;;;-144.19;100.00;78465.41;6155258;23;19923;-86
2022/01/28 00:54:22;;;;;;;11.77;2.60;;;;;;;-144.19;100.00;78477.22;6153634;23;20021;-88
2022/01/28 00:56:48;;;;;;;13.25;2.75;;;;;;;-144.19;100.00;78481.16;6153987;23;20032;-88
2022/01/28 00:59:15;;;;;;;11.60;2.53;;;;;;;-144.19;100.00;78508.72;6156109;23;20021;-88
2022/01/28 01:01:42;;;;;;;16.95;2.60;;;;;;;-144.19;100.00;78516.59;6161869;23;20454;-87
2022/01/28 01:04:09;;;;;;;10.15;2.00;;;;;;;-144.19;100.00;78526.47;6157744;23;20458;-88
2022/01/28 01:06:36;;;;;;;14.88;2.40;;;;;;;-144.19;100.00;78536.31;6157962;23;20101;-87
2022/01/28 01:09:03;;;;;;;19.00;3.23;;;;;;;-144.19;100.00;78536.31;6156537;23;20478;-87
2022/01/28 01:11:29;;;;;;;11.45;1.90;;;;;;;-144.19;100.00;78544.19;6155310;23;20307;-88
2022/01/28 01:13:56;;;;;;;13.77;2.20;;;;;;;-144.19;100.00;78575.69;6156136;23;20346;-88
2022/01/28 01:16:34;;;;;;;11.20;2.20;;;;;;;-144.19;100.00;78571.75;6155476;23;20069;-88
2022/01/28 01:19:24;;;;;;;12.00;2.30;;;;;;;-144.19;100.00;78573.72;6156612;23;20021;-88
2022/01/28 01:21:53;;;;;;;20.30;3.03;;;;;;;-144.19;100.00;78581.59;6156263;23;20036;-87
2022/01/28 01:24:23;;;;;;;10.45;1.80;;;;;;;-144.19;100.00;78579.63;6154582;23;20028;-88
2022/01/28 01:26:50;;;;;;;11.48;2.10;;;;;;;-144.19;100.00;78571.75;6155286;23;20025;-87
2022/01/28 01:29:19;;;;;;;;;;;;;;;-144.19;100.00;78575.69;6156771;23;20075;-88
2022/01/28 01:31:47;;;;;;;16.48;2.47;;;;;;;-144.19;100.00;78583.56;6171438;23;19900;-87
2022/01/28 01:36:41;;;;;;;18.98;3.15;;;;;;;-144.19;100.00;78561.91;6158681;23;20358;-88
2022/01/28 01:39:08;;;;;;;27.77;2.88;;;;;;;-144.19;100.00;78556.00;6155573;23;20032;-87
2022/01/28 01:41:43;;;;;;;;;;;;;;;-144.19;100.00;78571.75;6154236;23;20463;-87
2022/01/28 01:44:28;;;;;;;16.30;3.10;;;;;;;-144.19;100.00;78557.97;6153886;23;20263;-87
2022/01/28 01:52:42;;;;;;;11.48;2.67;;;;;;;-144.19;100.00;78593.41;6155269;23;20022;-88
2022/01/28 01:55:09;;;;;;;11.90;2.50;;;;;;;-144.19;100.00;78589.47;6154208;23;20033;-87
2022/01/28 01:57:37;;;;;;;17.92;2.65;;;;;;;-144.19;100.00;78603.25;6155119;23;20021;-87
2022/01/28 02:00:06;;;;;;;10.15;2.72;;;;;;;-144.19;100.00;78595.38;6154076;23;20101;-87
2022/01/28 02:02:33;;;;;;;13.10;2.53;;;;;;;-144.19;100.00;78591.44;6153457;23;20032;-88
2022/01/28 02:05:00;;;;;;;18.08;2.60;;;;;;;-144.19;100.00;78585.53;6154105;23;20369;-88
2022/01/28 02:07:27;;;;;;;15.38;2.70;;;;;;;-144.19;100.00;78595.38;6153852;23;20021;-88
2022/01/28 02:09:53;;;;;;;13.38;2.72;;;;;;;-144.19;100.00;78607.19;6154567;23;20018;-88
2022/01/28 02:12:19;;;;;;;12.30;2.07;;;;;;;-144.19;100.00;78589.47;6155564;23;20035;-87
2022/01/28 02:14:46;;;;;;;13.00;2.60;;;;;;;-144.19;100.00;78597.34;6156208;23;20739;-87
2022/01/28 02:17:12;;;;;;;16.55;3.20;;;;;;;-144.19;100.00;78611.13;6157997;23;20249;-87
2022/01/28 02:19:40;;;;;;;12.10;2.13;;;;;;;-144.19;100.00;78599.31;6157548;23;20020;-87
2022/01/28 02:22:06;;;;;;;;;;;;;;;-144.19;100.00;78609.16;6158077;23;20358;-87
2022/01/28 02:24:40;;;;;;;17.55;3.08;;;;;;;-144.19;100.00;78626.91;6156552;23;19923;-87
2022/01/28 02:27:08;;;;;;;12.70;2.28;;;;;;;-144.19;100.00;78622.97;6158203;23;20028;-87
2022/01/28 02:29:35;;;;;;;15.20;2.95;;;;;;;-144.19;100.00;78615.09;6155788;23;20028;-88
2022/01/28 02:32:05;;;;;;;14.77;2.63;;;;;;;-144.19;100.00;78619.03;6156075;23;20021;-87
2022/01/28 02:34:33;;;;;;;16.92;2.13;;;;;;;-144.19;100.00;78613.09;6156226;23;20395;-87
2022/01/28 02:37:00;;;;;;;17.80;2.60;;;;;;;-144.19;100.00;78621.00;6158426;23;20473;-88
2022/01/28 02:39:27;;;;;;;;;;;;;;;-144.19;100.00;78611.13;6156883;23;20028;-87
2022/01/28 02:42:01;;;;;;;14.02;2.47;;;;;;;-144.19;100.00;78634.78;6156967;23;19923;-87
2022/01/28 02:47:18;;;;;;;22.63;3.33;;;;;;;-144.19;100.00;78670.22;6157930;23;20218;-88
2022/01/28 02:49:45;;;;;;;15.25;2.70;;;;;;;-144.19;100.00;78650.53;6156336;23;20021;-88
2022/01/28 02:52:20;;;;;;;15.25;2.58;;;;;;;-144.19;100.00;78682.03;6156455;23;20021;-88
2022/01/28 02:54:49;;;;;;;12.18;1.98;;;;;;;-144.19;100.00;78674.16;6157599;23;20036;-88
2022/01/28 02:57:20;;;;;;;18.80;2.33;;;;;;;-144.19;100.00;78678.09;6156149;23;20466;-87
2022/01/28 02:59:47;;;;;;;16.48;3.00;;;;;;;-144.19;100.00;78682.03;6156180;23;20630;-87
2022/01/28 03:02:13;;;;;;;14.60;2.67;;;;;;;-144.19;100.00;78713.56;6155538;23;20017;-86
2022/01/28 03:07:26;;;;;;;14.25;2.50;;;;;;;-144.19;100.00;78705.66;6158975;23;20029;-87
2022/01/28 03:10:25;;;;;;;19.88;2.83;;;;;;;-144.19;100.00;78705.66;6175158;23;20070;-87
2022/01/28 03:15:25;;;;;;;11.90;2.22;;;;;;;-144.19;100.00;78701.72;6157757;23;20028;-88
2022/01/28 03:18:14;;;;;;;10.10;2.15;;;;;;;-144.19;100.00;78691.88;6156895;23;20021;-87
2022/01/28 03:20:45;;;;;;;19.15;3.38;;;;;;;-144.19;100.00;78682.03;6158785;23;20074;-87
2022/01/28 03:23:11;;;;;;;16.02;1.90;;;;;;;-144.19;100.00;78685.97;6156647;23;20021;-87
2022/01/28 03:25:42;;;;;;;18.80;2.05;;;;;;;-144.19;100.00;78699.75;6154311;23;20029;-88
2022/01/28 03:28:09;;;;;;;16.27;2.60;;;;;;;-144.19;100.00;78693.84;6154883;23;20021;-88
2022/01/28 03:30:36;;;;;;;11.75;2.00;;;;;;;-144.19;100.00;78693.84;6155470;23;20024;-88
2022/01/28 03:33:02;;;;;;;17.40;3.33;;;;;;;-144.19;100.00;78684.00;6153413;23;20021;-87
2022/01/28 03:35:31;;;;;;;18.70;3.28;;;;;;;-144.19;100.00;78689.91;6156020;23;20237;-87
2022/01/28 03:38:01;;;;;;;11.02;2.05;;;;;;;-144.19;100.00;78699.75;6153809;23;20022;-87
2022/01/28 03:40:35;;;;;;;10.65;2.13;;;;;;;-144.19;100.00;78684.00;6155569;23;20362;-88
2022/01/28 03:43:03;;;;;;;8.25;1.98;;;;;;;-144.19;100.00;78693.84;6153719;23;20357;-87
2022/01/28 03:45:29;;;;;;;15.88;2.13;;;;;;;-144.19;100.00;78689.91;6153448;23;20028;-87
2022/01/28 03:47:56;;;;;;;10.40;2.20;;;;;;;-144.19;100.00;78678.09;6154461;23;20021;-87
2022/01/28 03:50:22;;;;;;;14.17;2.37;;;;;;;-144.19;100.00;78697.78;6153978;23;20022;-87
2022/01/28 03:52:49;;;;;;;13.80;2.67;;;;;;;-144.19;100.00;78713.56;6155516;23;20415;-88
2022/01/28 03:55:16;;;;;;;20.90;3.10;;;;;;;-144.19;100.00;78705.66;6153282;23;20028;-87
2022/01/28 03:57:42;;;;;;;12.30;1.88;;;;;;;-144.19;100.00;78721.44;6154012;23;20245;-88
2022/01/28 04:00:10;;;;;;;8.17;2.17;;;;;;;-144.19;100.00;78705.66;6153167;23;20029;-87
2022/01/28 04:02:40;;;;;;;11.43;2.60;;;;;;;-144.19;100.00;78719.47;6153335;23;20032;-87
2022/01/28 04:13:25;;;;;;;13.73;2.17;;;;;;;-144.19;100.00;78684.00;6155152;23;20096;-87
2022/01/28 04:18:24;;;;;;;14.57;3.30;;;;;;;-144.19;100.00;78709.63;6154753;23;20402;-87
2022/01/28 04:20:50;;;;;;;14.07;2.27;;;;;;;-144.19;100.00;78721.44;6153667;23;20024;-87
2022/01/28 04:23:18;;;;;;;14.38;3.55;;;;;;;-144.19;100.00;78713.56;6152857;23;20245;-87
2022/01/28 04:25:45;;;;;;;20.25;2.97;;;;;;;-144.19;100.00;78725.38;6155042;23;20108;-87
2022/01/28 04:28:11;;;;;;;14.65;2.38;;;;;;;-144.19;100.00;78735.22;6153000;23;20577;-87
2022/01/28 04:30:37;;;;;;;23.13;3.65;;;;;;;-144.19;100.00;78733.25;6153767;23;20362;-87
2022/01/28 04:33:09;;;;;;;17.95;3.10;;;;;;;-144.19;100.00;78749.00;6155043;23;20029;-86
2022/01/28 04:35:35;;;;;;;14.50;2.70;;;;;;;-144.19;100.00;78727.34;6153665;23;20021;-88
2022/01/28 04:38:17;;;;;;;26.63;3.65;;;;;;;-144.19;100.00;78737.19;6155638;23;20026;-86
2022/01/28 04:43:29;;;;;;;17.95;2.60;;;;;;;-144.19;100.00;78731.28;6155530;23;20021;-87
2022/01/28 04:46:08;;;;;;;12.95;2.90;;;;;;;-144.19;100.00;78725.38;6154896;23;20056;-88
2022/01/28 04:49:02;;;;;;;21.50;3.20;;;;;;;-144.19;100.00;78729.31;6154441;23;20030;-87
2022/01/28 04:57:24;;;;;;;18.70;4.60;;;;;;;-144.19;100.00;78721.44;6159661;23;20017;-87
2022/01/28 05:00:14;;;;;;;17.10;3.40;;;;;;;-144.19;100.00;78721.44;6155643;23;20018;-88
2022/01/28 05:03:16;;;;;;;16.58;3.92;;;;;;;-144.19;100.00;78713.56;6156901;23;20101;-85
2022/01/28 05:27:07;;;;;;;18.65;3.38;;;;;;;-144.19;100.00;78749.00;6158889;23;20029;-88
2022/01/28 05:29:35;;;;;;;19.85;4.32;;;;;;;-144.19;100.00;78741.13;6158022;23;20027;-89
2022/01/28 05:32:03;;;;;;;17.10;3.58;;;;;;;-144.19;100.00;78754.91;6157213;23;20021;-88
2022/01/28 05:34:29;;;;;;;26.92;4.25;;;;;;;-144.19;100.00;78764.75;6155811;23;20025;-88
2022/01/28 05:36:56;;;;;;;17.50;3.87;;;;;;;-144.19;100.00;78776.56;6158378;23;20029;-88
2022/01/28 05:39:22;;;;;;;22.03;3.47;;;;;;;-144.19;100.00;78776.56;6156536;23;20022;-88
2022/01/28 05:41:49;;;;;;;19.43;3.97;;;;;;;-144.19;100.00;78788.38;6156991;23;20833;-89
2022/01/28 05:44:15;;;;;;;14.00;3.83;;;;;;;-144.19;100.00;78804.16;6155397;23;20122;-88
2022/01/28 05:46:44;;;;;;;20.80;4.07;;;;;;;-144.19;100.00;78796.28;6153975;23;20034;-89
2022/01/28 05:49:11;;;;;;;12.25;3.60;;;;;;;-144.19;100.00;78812.03;6153236;23;20335;-86
2022/01/28 05:51:38;;;;;;;12.00;3.08;;;;;;;-144.19;100.00;78804.16;6154862;23;20021;-86
2022/01/28 05:54:04;;;;;;;19.10;2.70;;;;;;;-144.19;100.00;78794.31;6153507;23;20228;-86
2022/01/28 05:56:31;;;;;;;20.40;3.40;;;;;;;-144.19;100.00;78802.19;6157069;23;20268;-88
2022/01/28 05:58:58;;;;;;;19.02;3.30;;;;;;;-144.19;100.00;78796.28;6157889;23;20502;-88
2022/01/28 06:01:25;;;;;;;15.50;3.42;;;;;;;-144.19;100.00;78784.44;6157151;23;20024;-88
2022/01/28 06:03:52;;;;;;;16.38;3.33;;;;;;;-144.19;100.00;78800.22;6155513;23;20080;-89
2022/01/28 06:06:23;;;;;;;23.73;3.90;;;;;;;-144.19;100.00;78798.25;6157940;23;20036;-87
2022/01/28 06:08:53;;;;;;;27.08;3.53;;;;;;;-144.19;100.00;78796.28;6172883;23;20021;-89
2022/01/28 06:11:21;;;;;;;14.65;2.92;;;;;;;-144.19;100.00;78815.97;6175592;23;20017;-89
2022/01/28 06:13:49;;;;;;;14.55;3.28;;;;;;;-144.19;100.00;78833.69;6174281;23;20018;-89
2022/01/28 06:16:20;;;;;;;18.30;3.38;;;;;;;-144.19;100.00;78831.72;6175869;23;20032;-90
2022/01/28 06:18:53;;;;;;;17.75;3.40;;;;;;;-144.19;100.00;78819.91;6175521;23;20029;-90
2022/01/28 06:21:21;;;;;;;18.08;3.88;;;;;;;-144.19;100.00;78810.06;6174720;23;20025;-90
2022/01/28 06:23:52;;;;;;;16.58;2.83;;;;;;;-144.19;100.00;78841.56;6174643;23;20084;-89
2022/01/28 06:26:22;;;;;;;20.73;3.95;;;;;;;-144.19;100.00;78857.31;6175596;23;20179;-88
2022/01/28 06:28:49;;;;;;;19.80;3.67;;;;;;;-144.19;100.00;78843.53;6176012;23;20037;-88
2022/01/28 06:31:20;;;;;;;22.13;3.38;;;;;;;-144.19;100.00;78839.59;6175170;23;20021;-89
2022/01/28 06:33:49;;;;;;;15.80;2.67;;;;;;;-144.19;100.00;78839.59;6176968;23;20102;-92
2022/01/28 06:36:16;;;;;;;21.75;4.32;;;;;;;-144.19;100.00;78875.06;6174536;23;20017;-88
2022/01/28 06:38:49;;;;;;;21.67;3.80;;;;;;;-144.19;100.00;78859.28;6177546;23;20025;-86
2022/01/28 06:41:17;;;;;;;19.08;3.45;;;;;;;-144.19;100.00;78879.00;6174662;23;20476;-85
2022/01/28 06:43:54;;;;;;;19.90;4.10;;;;;;;-144.19;100.00;78879.00;6175265;23;20052;-86
2022/01/28 06:46:22;;;;;;;;;;;;;;;-144.19;100.00;78875.06;6176076;23;20028;-88
2022/01/28 06:48:52;;;;;;;26.13;4.10;;;;;;;-144.19;100.00;78879.00;6177141;23;19919;-88
2022/01/28 06:51:22;;;;;;;25.90;4.15;;;;;;;-144.19;100.00;78888.84;6176541;23;20022;-89
2022/01/28 06:53:52;;;;;;;15.25;3.33;;;;;;;-144.19;100.00;78894.75;6176130;23;20516;-87
2022/01/28 06:56:19;;;;;;;27.25;4.32;;;;;;;-144.19;100.00;78890.81;6176996;23;20026;-88
2022/01/28 06:58:46;;;;;;;17.58;3.35;;;;;;;-144.19;100.00;78890.81;6176866;23;20041;-87
2022/01/28 07:01:46;;;;;;;;;;;;;;;-144.19;100.00;78884.91;6180205;23;20009;-88
2022/01/28 07:04:21;;;;;;;19.20;3.07;;;;;;;-144.19;100.00;78914.44;6171006;23;19917;-88
2022/01/28 07:06:48;;;;;;;14.30;3.22;;;;;;;-144.19;100.00;78896.72;6178816;23;20028;-88
2022/01/28 07:09:16;;;;;;;22.15;4.90;;;;;;;-144.19;100.00;78906.56;6178683;23;20010;-89
2022/01/28 07:11:44;;;;;;;21.63;2.95;;;;;;;-144.19;100.00;78916.41;6178221;23;20044;-88
2022/01/28 07:14:18;;;;;;;23.88;4.40;;;;;;;-144.19;100.00;78918.38;6178026;23;20025;-88
2022/01/28 07:16:45;;;;;;;21.88;4.68;;;;;;;-144.19;100.00;78949.91;6178957;23;20450;-88
2022/01/28 07:19:15;;;;;;;;;;;;;;;-144.19;100.00;78945.94;6179618;23;20450;-90
2022/01/28 07:21:42;;;;;;;22.92;4.05;;;;;;;-144.19;100.00;78947.94;6178247;23;19947;-91
2022/01/28 07:24:10;;;;;;;19.27;3.53;;;;;;;-144.19;100.00;78953.84;6178162;23;20077;-88
2022/01/28 07:26:38;;;;;;;21.23;4.03;;;;;;;-144.19;100.00;78969.59;6177946;23;20021;-90
2022/01/28 07:29:15;;;;;;;18.70;3.72;;;;;;;-144.19;100.00;78944.00;6153462;23;20459;-90
2022/01/28 07:32:08;;;;;;;24.02;4.47;;;;;;;-144.19;100.00;78949.91;6178676;23;20024;-90
2022/01/28 07:34:45;;;;;;;21.80;4.45;;;;;;;-144.19;100.00;78945.94;6178280;23;20021;-90
2022/01/28 07:37:31;;;;;;;24.02;4.82;;;;;;;-144.19;100.00;78953.84;6171669;23;20029;-90
2022/01/28 07:40:32;;;;;;;20.65;4.43;;;;;;;-144.19;100.00;78955.81;6163877;23;20025;-90
2022/01/28 07:43:30;;;;;;;19.35;3.47;;;;;;;-144.19;100.00;78953.84;6179098;23;20005;-90
2022/01/28 07:46:39;;;;;;;22.05;3.80;;;;;;;-144.19;100.00;78928.22;6177062;23;20057;-90
2022/01/28 07:49:20;;;;;;;19.95;3.90;;;;;;;-144.19;100.00;78934.13;6178639;23;20021;-90
2022/01/28 07:51:48;;;;;;;27.77;4.88;;;;;;;-144.19;100.00;78942.00;6178014;23;20041;-90
2022/01/28 07:54:16;;;;;;;24.88;4.50;;;;;;;-144.19;100.00;78945.94;6178238;23;20044;-89
2022/01/28 07:56:52;;;;;;;24.13;4.25;;;;;;;-144.19;100.00;78949.91;6177887;23;20032;-89
2022/01/28 07:59:23;;;;;;;23.27;3.80;;;;;;;-144.19;100.00;78934.13;6177877;23;20021;-89
2022/01/28 08:01:51;;;;;;;22.55;3.88;;;;;;;-144.19;100.00;78940.03;6178177;23;20022;-89
2022/01/28 08:04:21;;;;;;;20.02;3.83;;;;;;;-144.19;100.00;78934.13;6177954;23;20021;-89
2022/01/28 08:06:59;;;;;;;27.98;4.20;;;;;;;-144.19;100.00;78942.00;6177010;23;20025;-89
2022/01/28 08:09:29;;;;;;;19.60;4.00;;;;;;;-144.19;100.00;78945.94;6177662;23;20021;-89
2022/01/28 08:11:57;;;;;;;18.85;3.35;;;;;;;-144.19;100.00;78947.94;6177789;23;20013;-89
2022/01/28 08:14:26;;;;;;;17.10;3.40;;;;;;;-144.19;100.00;78934.13;6177417;23;20029;-89
2022/01/28 08:16:56;;;;;;;20.40;4.32;;;;;;;-144.19;100.00;78953.84;6178690;23;20021;-90
2022/01/28 08:19:25;;;;;;;25.95;4.53;;;;;;;-144.19;100.00;78947.94;6176939;23;20018;-89
2022/01/28 08:21:56;;;;;;;20.77;3.97;;;;;;;-144.19;100.00;78934.13;6178052;23;20283;-89
2022/01/28 08:24:24;;;;;;;20.98;3.65;;;;;;;-144.19;100.00;78940.03;6152995;23;20025;-90
2022/01/28 08:26:54;;;;;;;21.15;5.50;;;;;;;-144.19;100.00;78953.84;6177544;23;20021;-90
2022/01/28 08:29:23;;;;;;;17.08;3.63;;;;;;;-144.19;100.00;78938.06;6177322;23;20029;-90
2022/01/28 08:32:01;;;;;;;23.38;4.30;;;;;;;-144.19;100.00;78924.28;6176492;23;20071;-89
2022/01/28 08:34:31;;;;;;;21.58;5.03;;;;;;;-144.19;100.00;78930.19;6176892;23;20052;-90
2022/01/28 08:37:13;;;;;;;21.52;4.05;;;;;;;-144.19;100.00;78918.38;6177358;23;20449;-91
2022/01/28 08:39:48;;;;;;;24.70;4.22;;;;;;;-144.19;100.00;78940.03;6176908;23;20022;-89
2022/01/28 08:42:19;;;;;;;23.30;3.88;;;;;;;-144.19;100.00;78930.19;6176815;23;20024;-88
2022/01/28 08:44:46;;;;;;;20.30;4.57;;;;;;;-144.19;100.00;78914.44;6164963;23;20021;-88
2022/01/28 08:47:13;;;;;;;20.85;3.65;;;;;;;-144.19;100.00;78922.31;6153060;23;20021;-89
2022/01/28 08:49:39;;;;;;;23.73;4.40;;;;;;;-144.19;100.00;78930.19;6152552;23;20025;-89
2022/01/28 08:52:06;;;;;;;20.65;4.57;;;;;;;-144.19;100.00;78938.06;6152096;23;20173;-89
2022/01/28 08:54:33;;;;;;;27.90;5.07;;;;;;;-144.19;100.00;78922.31;6157904;23;20025;-90
2022/01/28 08:57:06;;;;;;;25.13;3.95;;;;;;;-144.19;100.00;78922.31;6176078;23;20021;-89
2022/01/28 08:59:43;;;;;;;26.70;4.07;;;;;;;-144.19;100.00;78918.38;6175930;23;20073;-89
2022/01/28 09:02:11;;;;;;;21.02;4.20;;;;;;;-144.19;100.00;78922.31;6176267;23;20048;-89
2022/01/28 09:04:50;;;;;;;25.63;4.90;;;;;;;-144.19;100.00;78953.84;6176074;23;20005;-88
2022/01/28 09:07:21;;;;;;;16.02;4.15;;;;;;;-144.19;100.00;78944.00;6201291;23;20022;-89
2022/01/28 09:10:23;;;;;;;19.10;4.07;;;;;;;-144.19;100.00;78926.25;6096620;23;20017;-88
2022/01/28 09:15:36;;;;;;;18.65;3.70;;;;;;;-144.19;100.00;78953.84;6177024;23;20051;-89
2022/01/28 09:18:04;;;;;;;31.63;4.97;;;;;;;-144.19;100.00;78940.03;6175859;23;20020;-89
2022/01/28 09:20:37;;;;;;;19.30;4.25;;;;;;;-144.19;100.00;78945.94;6176466;23;20041;-88
2022/01/28 09:23:09;;;;;;;19.48;4.32;;;;;;;-144.19;100.00;78944.00;6176525;23;20037;-89
2022/01/28 09:25:39;;;;;;;18.27;4.00;;;;;;;-144.19;100.00;78922.31;6176240;23;20038;-90
2022/01/28 09:28:24;;;;;;;24.35;4.75;;;;;;;-144.19;100.00;78930.19;6177235;23;20021;-88
2022/01/28 09:31:12;;;;;;;19.70;4.70;;;;;;;-144.19;100.00;78920.34;6176778;23;20025;-90
2022/01/28 09:33:55;;;;;;;24.20;4.53;;;;;;;-144.19;100.00;78914.44;6128180;23;20022;-89
2022/01/28 09:36:29;;;;;;;28.20;6.75;;;;;;;-144.19;100.00;78920.34;6175497;23;20029;-88
2022/01/28 09:38:59;;;;;;;24.40;4.30;;;;;;;-144.19;100.00;78947.94;6175340;23;20021;-89
2022/01/28 09:41:31;;;;;;;25.05;3.90;;;;;;;-144.19;100.00;78930.19;6176833;23;20018;-90
2022/01/28 09:44:18;;;;;;;21.05;5.57;;;;;;;-144.19;100.00;78879.00;6179871;23;20029;-90
2022/01/28 09:46:49;;;;;;;21.10;4.13;;;;;;;-144.19;100.00;78879.00;6176107;23;20022;-89
2022/01/28 09:49:20;;;;;;;20.60;4.22;;;;;;;-144.19;100.00;78879.00;6175997;23;20049;-89
2022/01/28 09:51:48;;;;;;;16.30;3.72;;;;;;;-144.19;100.00;78859.28;6176149;23;20001;-89
2022/01/28 09:54:19;;;;;;;17.85;4.90;;;;;;;-144.19;100.00;78880.97;6176348;23;20048;-90
2022/01/28 09:57:01;;;;;;;23.52;4.03;;;;;;;-144.19;100.00;78890.81;6172378;23;20034;-90
2022/01/28 09:59:29;;;;;;;22.75;4.00;;;;;;;-144.19;100.00;78863.22;6175155;23;20022;-89
2022/01/28 10:02:09;;;;;;;23.98;4.20;;;;;;;-144.19;100.00;78871.13;6176564;23;20061;-89
2022/01/28 10:04:47;;;;;;;31.27;5.32;;;;;;;-144.19;100.00;78875.06;6176845;23;20021;-89
2022/01/28 10:07:57;;;;;;;;;;;;;;;;;;;;;
2022/01/28 10:10:30;;;;;;;23.02;3.85;;;;;;;-144.19;100.00;78851.41;6172162;23;20085;-89
2022/01/28 10:13:51;;;;;;;24.13;4.50;;;;;;;-144.19;100.00;78853.38;6176482;23;20026;-90
2022/01/28 10:16:31;;;;;;;30.05;4.95;;;;;;;-144.19;100.00;78863.22;6175503;23;20021;-90
2022/01/28 10:19:16;;;;;;;24.13;7.20;;;;;;;-144.19;100.00;78875.06;6115784;23;20036;-89
2022/01/28 10:21:47;;;;;;;19.55;5.55;;;;;;;-144.19;100.00;78882.94;6092468;23;20050;-89
2022/01/28 10:24:19;;;;;;;21.30;3.88;;;;;;;-144.19;100.00;78871.13;6171588;23;20572;-90
2022/01/28 10:26:55;;;;;;;23.15;5.55;;;;;;;-144.19;100.00;78879.00;6175817;23;20032;-89
2022/01/28 10:29:28;;;;;;;17.33;5.45;;;;;;;-144.19;100.00;78853.38;6176706;23;20081;-90
2022/01/28 10:32:01;;;;;;;24.38;3.92;;;;;;;-144.19;100.00;78875.06;6176240;23;19998;-89
2022/01/28 10:34:59;;;;;;;23.20;4.45;;;;;;;-144.19;100.00;78859.28;6178426;23;20021;-89
2022/01/28 10:37:32;;;;;;;15.52;3.80;;;;;;;-144.19;100.00;78879.00;6178382;23;20085;-89
2022/01/28 10:40:09;;;;;;;23.15;3.97;;;;;;;-144.19;100.00;78855.34;6178103;23;20021;-89
2022/01/28 10:43:14;;;;;;;19.38;3.97;;;;;;;-144.19;100.00;78890.81;6178179;23;20586;-89
2022/01/28 10:46:16;;;;;;;17.08;3.92;;;;;;;-144.19;100.00;78839.59;6164313;23;20457;-90
2022/01/28 10:49:01;;;;;;;28.67;4.50;;;;;;;-144.19;100.00;78800.22;6170894;23;20048;-90
2022/01/28 10:52:18;;;;;;;16.05;3.80;;;;;;;-144.19;100.00;78819.91;6177592;23;20020;-90
2022/01/28 10:54:57;;;;;;;23.10;4.43;;;;;;;-144.19;100.00;78827.78;6177310;23;20018;-90
2022/01/28 10:57:33;;;;;;;20.25;4.05;;;;;;;-144.19;100.00;78835.66;6177546;23;20068;-89
2022/01/28 11:04:01;;;;;;;22.30;3.60;;;;;;;-144.19;100.00;78776.56;6179197;23;20032;-89
2022/01/28 11:06:37;;;;;;;23.25;4.28;;;;;;;-144.19;100.00;78762.78;6177746;23;20029;-90
2022/01/28 11:09:23;;;;;;;26.98;5.70;;;;;;;-144.19;100.00;78790.38;6177546;23;20025;-89
2022/01/28 11:11:54;;;;;;;24.25;5.10;;;;;;;-144.19;100.00;78802.19;6176487;23;20072;-89
2022/01/28 11:14:25;;;;;;;23.00;4.13;;;;;;;-144.19;100.00;78796.28;6177625;23;20022;-89
2022/01/28 11:17:43;;;;;;;17.80;4.60;;;;;;;-144.19;100.00;78776.56;6177069;23;20017;-89
2022/01/28 11:20:38;;;;;;;17.52;3.85;;;;;;;-144.19;100.00;78788.38;6178498;23;20025;-90
2022/01/28 11:23:51;;;;;;;18.20;4.03;;;;;;;-144.19;100.00;78768.69;6181238;23;20136;-89
2022/01/28 11:26:51;;;;;;;22.33;5.88;;;;;;;-144.19;100.00;78784.44;6165200;23;20028;-89
2022/01/28 11:29:27;;;;;;;21.75;5.45;;;;;;;-144.19;100.00;78770.66;6177121;23;20025;-89
2022/01/28 11:32:14;;;;;;;23.38;5.22;;;;;;;-144.19;100.00;78764.75;6171353;23;20025;-88
2022/01/28 11:35:02;;;;;;;21.52;3.75;;;;;;;-144.19;100.00;78749.00;6171175;23;20021;-89
2022/01/28 11:37:47;;;;;;;21.85;4.47;;;;;;;-144.19;100.00;78739.16;6171895;23;20112;-89
2022/01/28 11:40:27;;;;;;;28.35;4.95;;;;;;;-144.19;100.00;78737.19;6175704;23;20021;-89
2022/01/28 11:43:25;;;;;;;19.70;3.45;;;;;;;-144.19;100.00;78737.19;6176541;23;20018;-88
2022/01/28 11:46:19;;;;;;;18.83;4.10;;;;;;;-144.19;100.00;78701.72;6175476;23;20085;-90
2022/01/28 11:48:54;;;;;;;14.57;3.35;;;;;;;-144.19;100.00;78691.88;6165487;23;20028;-89
2022/01/28 11:51:35;;;;;;;18.58;4.20;;;;;;;-144.19;100.00;78670.22;6177008;23;20069;-89
2022/01/28 11:54:15;;;;;;;23.77;4.13;;;;;;;-144.19;100.00;78634.78;6177465;23;20017;-90
2022/01/28 11:56:56;;;;;;;19.17;4.35;;;;;;;-144.19;100.00;78599.31;6176842;23;20082;-89
2022/01/28 11:59:28;;;;;;;25.83;4.22;;;;;;;-144.19;100.00;78666.28;6177445;23;20041;-89
2022/01/28 12:02:00;;;;;;;30.15;4.43;;;;;;;-144.19;100.00;78699.75;6177075;23;20447;-90
2022/01/28 12:04:34;;;;;;;26.42;5.88;;;;;;;-144.19;100.00;78640.69;6177050;23;20022;-89
2022/01/28 12:07:04;;;;;;;23.02;3.15;;;;;;;-144.19;100.00;78617.06;6177504;23;20028;-89
2022/01/28 12:09:48;;;;;;;20.60;4.00;;;;;;;-144.19;100.00;78601.28;6160243;23;20037;-90
2022/01/28 12:12:40;;;;;;;22.40;4.88;;;;;;;-144.19;100.00;78630.84;6176547;23;20021;-89
2022/01/28 12:15:12;;;;;;;19.63;3.95;;;;;;;-144.19;100.00;78674.16;6178091;23;20025;-90
2022/01/28 12:17:44;;;;;;;23.40;3.70;;;;;;;-144.19;100.00;78666.28;6176281;23;20048;-87
2022/01/28 12:20:49;;;;;;;22.63;3.55;;;;;;;-144.19;100.00;78636.75;6177345;23;20036;-89
2022/01/28 12:23:30;;;;;;;22.83;5.03;;;;;;;-144.19;100.00;78654.47;6177676;23;20072;-93
2022/01/28 12:26:11;;;;;;;24.15;4.32;;;;;;;-144.19;100.00;78668.25;6176454;23;20469;-91
2022/01/28 12:28:58;;;;;;;20.52;3.60;;;;;;;-144.19;100.00;78622.97;6175475;23;20040;-91
2022/01/28 12:31:56;;;;;;;17.02;3.85;;;;;;;-144.19;100.00;78654.47;6176340;23;20080;-90
2022/01/28 12:34:39;;;;;;;22.17;3.85;;;;;;;-144.19;100.00;78622.97;6176542;23;20025;-89
2022/01/28 12:37:06;;;;;;;16.35;3.63;;;;;;;-144.19;100.00;78621.00;6173704;23;20021;-88
2022/01/28 12:43:37;;;;;;;25.42;4.88;;;;;;;-144.19;100.00;78622.97;6130602;23;20018;-92
2022/01/28 12:46:49;;;;;;;20.92;4.07;;;;;;;-144.19;100.00;78632.81;6175944;23;20040;-91
2022/01/28 12:57:22;;;;;;;18.17;3.88;;;;;;;-144.19;100.00;78634.78;6076699;23;20021;-92
2022/01/28 13:16:07;;;;;;;19.48;3.92;;;;;;;-144.19;100.00;78650.53;5863793;24;20036;-89
2022/01/28 13:19:31;;;;;;;17.55;5.00;;;;;;;-144.19;100.00;78654.47;5965774;23;20110;-90
2022/01/28 13:22:07;;;;;;;26.10;5.03;;;;;;;-144.19;100.00;78676.13;6064723;23;20492;-90
2022/01/28 13:28:40;;;;;;;24.23;5.80;;;;;;;-144.19;100.00;78685.97;6083697;23;20062;-91
2022/01/28 13:31:33;;;;;;;20.85;4.68;;;;;;;-144.19;100.00;78658.41;6045210;23;20146;-91
2022/01/28 13:34:54;;;;;;;17.48;3.47;;;;;;;-144.19;100.00;78656.44;6163171;23;20018;-91
2022/01/28 13:38:30;;;;;;;20.45;3.17;;;;;;;-144.19;100.00;78642.66;6064305;23;20007;-90